Time,TemperatureF,DewpointF,PressureIn,WindDirection,WindDirectionDegrees,WindSpeedMPH,WindSpeedGustMPH,Humidity,HourlyPrecipIn,Conditions,Clouds,dailyrainin,SoftwareType,DateUTC
2013-01-17 00:00:00,8.8,-5.2,30.21,NW,318,4.0,11.0,52,0.00,,SCT110,0.01,VWS V14.01,2013-01-17 06:00:00,
2013-01-17 00:05:00,8.8,-4.4,30.22,NW,318,2.0,6.0,54,0.00,,BKN100,0.00,VWS V14.01,2013-01-17 06:05:00,
2013-01-17 00:10:00,8.8,-3.3,30.22,NW,318,4.0,6.0,57,0.00,,BKN100,0.00,VWS V14.01,2013-01-17 06:10:00,
2013-01-17 00:15:00,9.0,-4.6,30.22,NW,319,6.0,7.0,53,0.00,,BKN100,0.00,VWS V14.01,2013-01-17 06:15:00,
2013-01-17 00:20:00,9.2,-4.4,30.23,NW,319,6.0,9.0,53,0.00,,BKN100,0.00,VWS V14.01,2013-01-17 06:20:00,
2013-01-17 00:25:00,9.3,-4.8,30.23,NW,322,3.0,10.0,52,0.00,,BKN100,0.00,VWS V14.01,2013-01-17 06:25:00,
2013-01-17 00:30:00,9.3,-3.6,30.23,NW,324,4.0,10.0,55,0.00,,BKN100,0.00,VWS V14.01,2013-01-17 06:30:00,
2013-01-17 00:35:00,9.3,-4.4,30.23,NNW,331,3.0,12.0,53,0.00,,BKN100,0.00,VWS V14.01,2013-01-17 06:35:00,
2013-01-17 00:40:00,9.5,-4.6,30.23,NNW,346,10.0,14.0,52,0.00,,OVC090,0.00,VWS V14.01,2013-01-17 06:40:00,
2013-01-17 00:45:00,9.5,-5.0,30.23,NNW,329,10.0,14.0,51,0.00,,OVC090,0.00,VWS V14.01,2013-01-17 06:45:00,
2013-01-17 00:50:00,9.5,-4.6,30.23,NW,321,7.0,12.0,52,0.00,,OVC090,0.00,VWS V14.01,2013-01-17 06:50:00,
2013-01-17 00:55:00,9.5,-4.6,30.23,NW,323,4.0,12.0,52,0.00,,OVC090,0.00,VWS V14.01,2013-01-17 06:55:00,
2013-01-17 01:00:00,9.5,-4.6,30.24,NNW,341,7.0,13.0,52,0.00,,OVC090,0.00,VWS V14.01,2013-01-17 07:00:00,
2013-01-17 01:05:00,9.5,-4.6,30.24,NNW,329,9.0,11.0,52,0.00,,OVC090,0.00,VWS V14.01,2013-01-17 07:05:00,
2013-01-17 01:10:00,9.5,-4.2,30.24,NNW,329,8.0,12.0,53,0.00,,OVC090,0.00,VWS V14.01,2013-01-17 07:10:00,
2013-01-17 01:15:00,9.5,-5.0,30.25,NNW,334,4.0,12.0,51,0.00,,OVC090,0.00,VWS V14.01,2013-01-17 07:15:00,
2013-01-17 01:20:00,9.5,-5.0,30.25,NNW,341,6.0,11.0,51,0.00,,OVC090,0.00,VWS V14.01,2013-01-17 07:20:00,
2013-01-17 01:25:00,9.5,-4.2,30.25,NNW,329,12.0,14.0,53,0.00,,OVC090,0.00,VWS V14.01,2013-01-17 07:25:00,
2013-01-17 01:30:00,9.3,-4.8,30.24,North,359,6.0,14.0,52,0.00,,,0.00,VWS V15.00,2013-01-17 07:30:00,
2013-01-17 01:31:00,9.3,-4.8,30.24,North,11,6.0,14.0,52,0.00,,OVC090,0.00,VWS V14.01,2013-01-17 07:31:00,
2013-01-17 01:36:00,9.3,-4.4,30.24,NNW,338,6.0,11.0,53,0.00,,OVC090,0.00,VWS V14.01,2013-01-17 07:36:00,
2013-01-17 01:41:00,9.2,-5.2,30.24,NNW,338,5.0,14.0,51,0.00,,OVC090,0.00,VWS V14.01,2013-01-17 07:41:00,
2013-01-17 01:45:00,9.0,-5.0,30.24,NNW,337,0.0,14.0,52,0.00,,,0.00,VWS V15.00,2013-01-17 07:45:00,
2013-01-17 01:46:00,9.0,-5.0,30.24,NNW,337,0.0,14.0,52,0.00,,OVC090,0.00,VWS V14.01,2013-01-17 07:46:00,
2013-01-17 01:51:00,9.0,-4.6,30.24,North,349,8.0,9.0,53,0.00,,OVC090,0.00,VWS V14.01,2013-01-17 07:51:00,
2013-01-17 01:56:00,9.0,-5.0,30.24,NNW,341,0.0,9.0,52,0.00,,OVC090,0.00,VWS V14.01,2013-01-17 07:56:00,
2013-01-17 02:00:00,8.8,-5.2,30.25,North,349,4.0,10.0,52,0.00,,,0.00,VWS V15.00,2013-01-17 08:00:00,
2013-01-17 02:01:00,8.8,-5.2,30.25,North,349,4.0,4.0,52,0.00,,OVC090,0.00,VWS V14.01,2013-01-17 08:01:00,
2013-01-17 02:06:00,8.8,-4.8,30.25,NNW,330,3.0,11.0,53,0.00,,OVC090,0.00,VWS V14.01,2013-01-17 08:06:00,
2013-01-17 02:11:00,8.8,-4.4,30.25,NNW,330,0.0,11.0,54,0.00,,OVC090,0.00,VWS V14.01,2013-01-17 08:11:00,
2013-01-17 02:15:00,8.8,-4.8,30.26,NNW,333,5.0,11.0,53,0.00,,,0.00,VWS V15.00,2013-01-17 08:15:00,
2013-01-17 02:16:00,8.8,-4.8,30.26,NNW,333,6.0,6.0,53,0.00,,OVC090,0.00,VWS V14.01,2013-01-17 08:16:00,
2013-01-17 02:21:00,8.6,-5.4,30.26,NNW,333,1.0,6.0,52,0.00,,OVC090,0.00,VWS V14.01,2013-01-17 08:21:00,
2013-01-17 02:26:00,8.6,-4.6,30.26,NNW,333,6.0,6.0,54,0.00,,OVC090,0.00,VWS V14.01,2013-01-17 08:26:00,
2013-01-17 02:30:00,8.6,-4.6,30.26,NNW,336,6.0,6.0,54,0.00,,,0.00,VWS V15.00,2013-01-17 08:30:00,
2013-01-17 02:31:00,8.6,-4.6,30.26,NNW,341,5.0,6.0,54,0.00,,OVC090,0.00,VWS V14.01,2013-01-17 08:31:00,
2013-01-17 02:36:00,8.4,-4.8,30.26,NNW,343,0.0,6.0,54,0.00,,OVC090,0.00,VWS V14.01,2013-01-17 08:36:00,
2013-01-17 02:41:00,8.4,-4.8,30.26,NNW,343,2.0,7.0,54,0.00,,OVC090,0.00,VWS V14.01,2013-01-17 08:41:00,
2013-01-17 02:45:00,8.4,-5.2,30.26,NNW,343,4.0,7.0,53,0.00,,,0.00,VWS V15.00,2013-01-17 08:45:00,
2013-01-17 02:46:00,8.4,-4.8,30.26,NNW,343,2.0,6.0,54,0.00,,OVC090,0.00,VWS V14.01,2013-01-17 08:46:00,
2013-01-17 02:51:00,8.3,-4.9,30.26,NNW,341,4.0,7.0,54,0.00,,OVC085,0.00,VWS V14.01,2013-01-17 08:51:00,
2013-01-17 02:57:00,8.3,-4.9,30.26,NNW,341,3.0,7.0,54,0.00,,OVC085,0.00,VWS V14.01,2013-01-17 08:57:00,
2013-01-17 03:00:00,8.3,-4.5,30.27,NNW,341,0.0,7.0,55,0.00,,,0.00,VWS V15.00,2013-01-17 09:00:00,
2013-01-17 03:02:00,8.3,-4.9,30.27,NNW,341,0.0,0.0,54,0.00,,OVC085,0.00,VWS V14.01,2013-01-17 09:02:00,
2013-01-17 03:07:00,8.1,-4.7,30.27,NNW,341,0.0,0.0,55,0.00,,OVC085,0.00,VWS V14.01,2013-01-17 09:07:00,
2013-01-17 03:12:00,8.1,-4.7,30.27,NNW,341,0.0,0.0,55,0.00,,OVC085,0.00,VWS V14.01,2013-01-17 09:12:00,
2013-01-17 03:15:00,7.9,-4.9,30.27,NNW,341,4.0,4.0,55,0.00,,,0.00,VWS V15.00,2013-01-17 09:15:00,
2013-01-17 03:17:00,7.9,-4.5,30.27,NNW,341,2.0,4.0,56,0.00,,OVC085,0.00,VWS V14.01,2013-01-17 09:17:00,
2013-01-17 03:22:00,7.7,-5.1,30.27,NNW,341,0.0,4.0,55,0.00,,OVC085,0.00,VWS V14.01,2013-01-17 09:22:00,
2013-01-17 03:27:00,7.4,-5.0,30.27,NNW,341,3.0,4.0,56,0.00,,OVC085,0.00,VWS V14.01,2013-01-17 09:27:00,
2013-01-17 03:30:00,7.2,-5.2,30.27,NNW,341,0.0,6.0,56,0.00,,,0.00,VWS V15.00,2013-01-17 09:30:00,
2013-01-17 03:32:00,7.2,-4.5,30.27,NNW,341,0.0,0.0,58,0.00,,OVC085,0.00,VWS V14.01,2013-01-17 09:32:00,
2013-01-17 03:37:00,6.9,-4.7,30.27,NNW,341,0.0,0.0,58,0.00,,OVC085,0.00,VWS V14.01,2013-01-17 09:37:00,
2013-01-17 03:42:00,6.7,-4.9,30.27,NNW,341,3.0,4.0,58,0.00,,SCT110,0.00,VWS V14.01,2013-01-17 09:42:00,
2013-01-17 03:45:00,6.5,-5.1,30.27,NNW,341,0.0,4.0,58,0.00,,,0.00,VWS V15.00,2013-01-17 09:45:00,
2013-01-17 03:47:00,6.5,-5.1,30.27,NNW,341,0.0,0.0,58,0.00,,SCT110,0.00,VWS V14.01,2013-01-17 09:47:00,
2013-01-17 03:52:00,6.3,-5.3,30.27,NNW,341,0.0,0.0,58,0.00,,BKN100,0.00,VWS V14.01,2013-01-17 09:52:00,
2013-01-17 03:57:00,6.1,-5.5,30.27,NNW,341,0.0,0.0,58,0.00,,BKN100,0.00,VWS V14.01,2013-01-17 09:57:00,
2013-01-17 04:00:00,6.1,-5.5,30.27,NNW,341,0.0,0.0,58,0.00,,,0.00,VWS V15.00,2013-01-17 10:00:00,
2013-01-17 04:02:00,6.1,-5.5,30.27,NNW,341,0.0,0.0,58,0.00,,BKN100,0.00,VWS V14.01,2013-01-17 10:02:00,
2013-01-17 04:07:00,6.1,-5.5,30.27,NNW,341,0.0,0.0,58,0.00,,BKN100,0.00,VWS V14.01,2013-01-17 10:07:00,
2013-01-17 04:15:00,6.0,-5.2,30.28,NNW,341,0.0,0.0,59,0.00,,,0.00,VWS V15.00,2013-01-17 10:15:00,
2013-01-17 04:23:00,5.6,-5.6,30.28,NNW,341,0.0,0.0,59,0.00,,BKN100,0.00,VWS V14.01,2013-01-17 10:23:00,
2013-01-17 04:28:00,5.4,-5.5,30.28,NNW,341,0.0,0.0,60,0.00,,BKN100,0.00,VWS V14.01,2013-01-17 10:28:00,
2013-01-17 04:30:00,5.4,-4.8,30.28,NNW,341,0.0,0.0,62,0.00,,,0.00,VWS V15.00,2013-01-17 10:30:00,
2013-01-17 04:33:00,5.4,-4.8,30.28,NNW,341,0.0,0.0,62,0.00,,BKN100,0.00,VWS V14.01,2013-01-17 10:33:00,
2013-01-17 04:38:00,5.6,-4.3,30.28,NNW,341,0.0,0.0,63,0.00,,BKN100,0.00,VWS V14.01,2013-01-17 10:38:00,
2013-01-17 04:43:00,5.8,-4.1,30.28,NNW,341,0.0,0.0,63,0.00,,OVC075,0.00,VWS V14.01,2013-01-17 10:43:00,
2013-01-17 04:45:00,5.8,-4.4,30.29,NNW,341,0.0,0.0,62,0.00,,,0.00,VWS V15.00,2013-01-17 10:45:00,
2013-01-17 04:48:00,6.0,-4.2,30.29,NNW,341,0.0,0.0,62,0.00,,OVC075,0.00,VWS V14.01,2013-01-17 10:48:00,
2013-01-17 04:53:00,6.1,-4.1,30.29,NNW,341,0.0,0.0,62,0.00,,OVC065,0.00,VWS V14.01,2013-01-17 10:53:00,
2013-01-17 04:58:00,6.3,-3.9,30.29,NNW,341,0.0,0.0,62,0.00,,OVC065,0.00,VWS V14.01,2013-01-17 10:58:00,
2013-01-17 05:00:00,6.3,-3.9,30.29,NNW,341,0.0,5.0,62,0.00,,,0.00,VWS V15.00,2013-01-17 11:00:00,
2013-01-17 05:03:00,6.5,-4.1,30.29,NNW,341,0.0,1.0,61,0.00,,OVC065,0.00,VWS V14.01,2013-01-17 11:03:00,
2013-01-17 05:08:00,6.5,-4.1,30.29,NNW,341,0.0,1.0,61,0.00,,OVC065,0.00,VWS V14.01,2013-01-17 11:08:00,
2013-01-17 05:13:00,6.5,-4.1,30.29,NNW,341,0.0,1.0,61,0.00,,OVC065,0.00,VWS V14.01,2013-01-17 11:13:00,
2013-01-17 05:15:00,6.5,-4.1,30.29,NNW,341,0.0,1.0,61,0.00,,,0.00,VWS V15.00,2013-01-17 11:15:00,
2013-01-17 05:18:00,6.5,-4.1,30.29,NNW,341,0.0,0.0,61,0.00,,OVC065,0.00,VWS V14.01,2013-01-17 11:18:00,
2013-01-17 05:23:00,6.3,-3.9,30.29,NNW,341,0.0,0.0,62,0.00,,OVC065,0.00,VWS V14.01,2013-01-17 11:23:00,
2013-01-17 05:28:00,6.3,-3.9,30.29,NNW,341,0.0,0.0,62,0.00,,OVC065,0.00,VWS V14.01,2013-01-17 11:28:00,
2013-01-17 05:30:00,6.3,-3.9,30.30,NNW,341,0.0,0.0,62,0.00,,,0.00,VWS V15.00,2013-01-17 11:30:00,
2013-01-17 05:34:00,6.3,-3.6,30.30,NNW,341,0.0,0.0,63,0.00,,OVC065,0.00,VWS V14.01,2013-01-17 11:34:00,
2013-01-17 05:39:00,6.3,-3.6,30.30,NNW,341,0.0,0.0,63,0.00,,OVC065,0.00,VWS V14.01,2013-01-17 11:39:00,
2013-01-17 05:44:00,6.5,-3.4,30.30,NNW,341,0.0,0.0,63,0.00,,OVC065,0.00,VWS V14.01,2013-01-17 11:44:00,
2013-01-17 05:45:00,6.5,-3.4,30.31,NNW,341,0.0,0.0,63,0.00,,,0.00,VWS V15.00,2013-01-17 11:45:00,
2013-01-17 05:49:00,6.5,-3.7,30.31,NNW,341,0.0,0.0,62,0.00,,OVC065,0.00,VWS V14.01,2013-01-17 11:49:00,
2013-01-17 05:54:00,6.7,-3.5,30.31,NNW,341,0.0,0.0,62,0.00,,OVC055,0.00,VWS V14.01,2013-01-17 11:54:00,
2013-01-17 05:59:00,6.7,-3.5,30.31,NNW,341,0.0,0.0,62,0.00,,OVC055,0.00,VWS V14.01,2013-01-17 11:59:00,
2013-01-17 06:00:00,6.9,-3.7,30.31,NNW,341,0.0,0.0,61,0.00,,,0.00,VWS V15.00,2013-01-17 12:00:00,
2013-01-17 06:04:00,6.9,-3.7,30.31,NNW,341,0.0,0.0,61,0.00,,OVC055,0.00,VWS V14.01,2013-01-17 12:04:00,
2013-01-17 06:09:00,7.0,-3.3,30.31,NNW,341,0.0,2.0,62,0.00,,OVC055,0.00,VWS V14.01,2013-01-17 12:09:00,
2013-01-17 06:14:00,7.0,-3.3,30.31,NNW,341,0.0,2.0,62,0.00,,OVC055,0.00,VWS V14.01,2013-01-17 12:14:00,
2013-01-17 06:15:00,7.0,-3.6,30.31,NNW,341,0.0,2.0,61,0.00,,,0.00,VWS V15.00,2013-01-17 12:15:00,
2013-01-17 06:19:00,7.0,-3.9,30.31,NNW,341,0.0,0.0,60,0.00,,OVC055,0.00,VWS V14.01,2013-01-17 12:19:00,
2013-01-17 06:24:00,7.2,-3.4,30.31,NNW,341,0.0,0.0,61,0.00,,OVC055,0.00,VWS V14.01,2013-01-17 12:24:00,
2013-01-17 06:29:00,7.2,-3.8,30.31,NNW,341,0.0,0.0,60,0.00,,OVC055,0.00,VWS V14.01,2013-01-17 12:29:00,
2013-01-17 06:30:00,7.2,-3.4,30.31,NNW,341,0.0,0.0,61,0.00,,,0.00,VWS V15.00,2013-01-17 12:30:00,
2013-01-17 06:34:00,7.2,-3.4,30.31,NNW,341,0.0,0.0,61,0.00,,OVC055,0.00,VWS V14.01,2013-01-17 12:34:00,
2013-01-17 06:39:00,7.4,-3.6,30.31,NNW,341,0.0,0.0,60,0.00,,OVC055,0.00,VWS V14.01,2013-01-17 12:39:00,
2013-01-17 06:44:00,7.4,-3.2,30.31,NNW,341,0.0,0.0,61,0.00,,OVC055,0.00,VWS V14.01,2013-01-17 12:44:00,
2013-01-17 06:45:00,7.4,-3.2,30.31,NNW,341,0.0,0.0,61,0.00,,,0.00,VWS V15.00,2013-01-17 12:45:00,
2013-01-17 06:49:00,7.4,-3.6,30.31,NNW,341,1.0,4.0,60,0.00,,OVC055,0.00,VWS V14.01,2013-01-17 12:49:00,
2013-01-17 06:54:00,7.6,-3.7,30.31,NNW,341,0.0,4.0,59,0.00,,OVC048,0.00,VWS V14.01,2013-01-17 12:54:00,
2013-01-17 06:59:00,7.6,-4.1,30.31,NNW,341,4.0,4.0,58,0.00,,OVC048,0.00,VWS V14.01,2013-01-17 12:59:00,
2013-01-17 07:00:00,7.6,-4.4,30.31,NNW,338,5.0,6.0,57,0.00,,,0.00,VWS V15.00,2013-01-17 13:00:00,
2013-01-17 07:04:00,7.6,-4.4,30.31,NNW,333,5.0,8.0,57,0.00,,OVC048,0.00,VWS V14.01,2013-01-17 13:04:00,
2013-01-17 07:09:00,7.7,-5.5,30.31,NW,304,0.0,9.0,54,0.00,,OVC048,0.00,VWS V14.01,2013-01-17 13:09:00,
2013-01-17 07:14:00,7.7,-6.2,30.31,West,274,4.0,9.0,52,0.00,,OVC048,0.00,VWS V14.01,2013-01-17 13:14:00,
2013-01-17 07:15:00,7.7,-6.7,30.31,West,274,0.0,9.0,51,0.00,,,0.00,VWS V15.00,2013-01-17 13:15:00,
2013-01-17 07:19:00,7.7,-6.7,30.31,West,274,0.0,0.0,51,0.00,,OVC048,0.00,VWS V14.01,2013-01-17 13:19:00,
2013-01-17 07:24:00,7.7,-6.7,30.31,West,274,0.0,0.0,51,0.00,,OVC048,0.00,VWS V14.01,2013-01-17 13:24:00,
2013-01-17 07:30:00,7.7,-6.2,30.31,West,274,0.0,0.0,52,0.00,,OVC048,0.00,VWS V14.01,2013-01-17 13:30:00,
2013-01-17 07:35:00,7.7,-6.2,30.31,West,274,5.0,6.0,52,0.00,,OVC048,0.00,VWS V14.01,2013-01-17 13:35:00,
2013-01-17 07:40:00,7.7,-6.7,30.31,West,273,5.0,7.0,51,0.00,,OVC048,0.00,VWS V14.01,2013-01-17 13:40:00,
2013-01-17 07:45:00,7.7,-6.2,30.31,West,273,0.0,7.0,52,0.00,,OVC046,0.00,VWS V14.01,2013-01-17 13:45:00,
2013-01-17 07:50:00,7.7,-6.2,30.31,West,260,6.0,9.0,52,0.00,,OVC046,0.00,VWS V14.01,2013-01-17 13:50:00,
2013-01-17 07:55:00,7.7,-5.5,30.31,WSW,256,3.0,9.0,54,0.00,,OVC046,0.00,VWS V14.01,2013-01-17 13:55:00,
2013-01-17 08:00:00,7.7,-5.9,30.31,WSW,254,9.0,10.0,53,0.00,,OVC046,0.00,VWS V14.01,2013-01-17 14:00:00,
2013-01-17 08:05:00,7.7,-5.5,30.33,WSW,246,6.0,12.0,54,0.00,,OVC048,0.00,VWS V14.01,2013-01-17 14:05:00,
2013-01-17 08:10:00,7.6,-5.6,30.33,WSW,239,12.0,13.0,54,0.00,,OVC048,0.00,VWS V14.01,2013-01-17 14:10:00,
2013-01-17 08:15:00,7.4,-5.4,30.33,WSW,240,9.0,13.0,55,0.00,,OVC048,0.00,VWS V14.01,2013-01-17 14:15:00,
2013-01-17 08:20:00,7.4,-5.4,30.33,SW,231,6.0,12.0,55,0.00,,OVC048,0.00,VWS V14.01,2013-01-17 14:20:00,
2013-01-17 08:25:00,7.4,-4.6,30.33,SW,230,6.0,12.0,57,0.00,,OVC048,0.00,VWS V14.01,2013-01-17 14:25:00,
2013-01-17 08:30:00,7.4,-4.6,30.33,SW,220,6.0,12.0,57,0.00,,OVC048,0.00,VWS V14.01,2013-01-17 14:30:00,
2013-01-17 08:35:00,7.4,-5.4,30.33,SW,236,11.0,11.0,55,0.00,,OVC048,0.00,VWS V14.01,2013-01-17 14:35:00,
2013-01-17 08:40:00,7.4,-5.0,30.33,WSW,240,3.0,11.0,56,0.00,,OVC048,0.00,VWS V14.01,2013-01-17 14:40:00,
2013-01-17 08:45:00,7.6,-4.4,30.35,SW,235,0.0,11.0,57,0.00,,OVC048,0.00,VWS V14.01,2013-01-17 14:45:00,
2013-01-17 08:50:00,7.6,-5.2,30.35,SW,236,10.0,13.0,55,0.00,,OVC048,0.00,VWS V14.01,2013-01-17 14:50:00,
2013-01-17 08:55:00,7.6,-5.2,30.35,WSW,237,10.0,13.0,55,0.00,,OVC048,0.00,VWS V14.01,2013-01-17 14:55:00,
2013-01-17 09:00:00,7.6,-5.9,30.35,WSW,255,9.0,13.0,53,0.00,,OVC048,0.00,VWS V14.01,2013-01-17 15:00:00,
2013-01-17 09:05:00,7.6,-5.6,30.35,WSW,251,5.0,10.0,54,0.00,,OVC048,0.00,VWS V14.01,2013-01-17 15:05:00,
2013-01-17 09:10:00,7.6,-5.9,30.35,WSW,253,7.0,11.0,53,0.00,,OVC048,0.00,VWS V14.01,2013-01-17 15:10:00,
2013-01-17 09:15:00,7.7,-5.9,30.37,WSW,245,10.0,13.0,53,0.00,,OVC048,0.00,VWS V14.01,2013-01-17 15:15:00,
2013-01-17 09:20:00,7.7,-5.5,30.37,WSW,242,12.0,12.0,54,0.00,,OVC048,0.00,VWS V14.01,2013-01-17 15:20:00,
2013-01-17 09:25:00,7.9,-5.7,30.37,WSW,246,5.0,12.0,53,0.00,,OVC048,0.00,VWS V14.01,2013-01-17 15:25:00,
2013-01-17 09:30:00,8.1,-5.5,30.37,WSW,248,5.0,12.0,53,0.00,,OVC048,0.00,VWS V14.01,2013-01-17 15:30:00,
2013-01-17 09:35:00,8.3,-4.9,30.37,WSW,247,1.0,9.0,54,0.00,,OVC048,0.00,VWS V14.01,2013-01-17 15:35:00,
2013-01-17 09:40:00,8.3,-5.3,30.37,WSW,251,6.0,9.0,53,0.00,,OVC030,0.00,VWS V14.01,2013-01-17 15:40:00,
2013-01-17 09:45:00,8.4,-5.2,30.38,West,270,8.0,12.0,53,0.00,,OVC030,0.00,VWS V14.01,2013-01-17 15:45:00,
2013-01-17 09:50:00,8.4,-5.2,30.38,West,264,0.0,11.0,53,0.00,,OVC030,0.00,VWS V14.01,2013-01-17 15:50:00,
2013-01-17 09:55:00,8.6,-4.2,30.38,West,264,1.0,11.0,55,0.00,,OVC030,0.00,VWS V14.01,2013-01-17 15:55:00,
2013-01-17 10:00:00,8.8,-3.7,30.38,West,263,0.0,11.0,56,0.00,,,0.00,VWS V15.00,2013-01-17 16:00:00,
2013-01-17 10:01:00,8.8,-3.7,30.38,West,263,4.0,11.0,56,0.00,,OVC033,0.00,VWS V14.01,2013-01-17 16:01:00,
2013-01-17 10:06:00,9.0,-3.5,30.38,West,263,0.0,3.0,56,0.00,,OVC033,0.00,VWS V14.01,2013-01-17 16:06:00,
2013-01-17 10:11:00,9.2,-3.3,30.38,West,262,7.0,7.0,56,0.00,,OVC033,0.00,VWS V14.01,2013-01-17 16:11:00,
2013-01-17 10:15:00,9.2,-2.9,30.38,WSW,254,0.0,9.0,57,0.00,,,0.00,VWS V15.00,2013-01-17 16:15:00,
2013-01-17 10:16:00,9.2,-2.9,30.38,WSW,254,4.0,9.0,57,0.00,,OVC033,0.00,VWS V14.01,2013-01-17 16:16:00,
2013-01-17 10:21:00,9.5,-2.3,30.38,WSW,254,0.0,6.0,58,0.00,,OVC033,0.00,VWS V14.01,2013-01-17 16:21:00,
2013-01-17 10:26:00,9.7,-2.1,30.38,WSW,254,2.0,6.0,58,0.00,,OVC033,0.00,VWS V14.01,2013-01-17 16:26:00,
2013-01-17 10:30:00,9.5,-1.9,30.38,WSW,254,1.0,6.0,59,0.00,,,0.00,VWS V15.00,2013-01-17 16:30:00,
2013-01-17 10:31:00,9.5,-1.9,30.38,WSW,254,0.0,6.0,59,0.00,,OVC033,0.00,VWS V14.01,2013-01-17 16:31:00,
2013-01-17 10:36:00,9.7,-1.4,30.38,WSW,254,0.0,5.0,60,0.00,,OVC033,0.00,VWS V14.01,2013-01-17 16:36:00,
2013-01-17 10:41:00,9.9,-0.9,30.38,WSW,254,0.0,6.0,61,0.00,,OVC024,0.00,VWS V14.01,2013-01-17 16:41:00,
2013-01-17 10:45:00,9.9,-0.5,30.37,WSW,254,2.0,6.0,62,0.00,,,0.00,VWS V15.00,2013-01-17 16:45:00,
2013-01-17 10:46:00,9.9,-0.5,30.37,WSW,254,2.0,6.0,62,0.00,,OVC024,0.00,VWS V14.01,2013-01-17 16:46:00,
2013-01-17 10:51:00,9.9,-0.5,30.37,WSW,254,3.0,6.0,62,0.00,,OVC024,0.00,VWS V14.01,2013-01-17 16:51:00,
2013-01-17 10:56:00,10.2,-0.2,30.37,WSW,254,0.0,6.0,62,0.00,,OVC024,0.00,VWS V14.01,2013-01-17 16:56:00,
2013-01-17 11:00:00,10.2,0.5,30.37,WSW,254,0.0,6.0,64,0.00,,,0.00,VWS V15.00,2013-01-17 17:00:00,
2013-01-17 11:01:00,10.2,0.1,30.37,WSW,254,0.0,0.0,63,0.00,,OVC027,0.00,VWS V14.01,2013-01-17 17:01:00,
2013-01-17 11:06:00,10.4,0.6,30.37,WSW,254,0.0,1.0,64,0.00,,OVC027,0.00,VWS V14.01,2013-01-17 17:06:00,
2013-01-17 11:11:00,10.5,0.8,30.37,WSW,254,4.0,7.0,64,0.00,,OVC027,0.00,VWS V14.01,2013-01-17 17:11:00,
2013-01-17 11:15:00,10.7,1.3,30.37,WSW,254,2.0,7.0,65,0.00,,,0.00,VWS V15.00,2013-01-17 17:15:00,
2013-01-17 11:16:00,10.7,1.3,30.37,WSW,254,0.0,2.0,65,0.00,,OVC027,0.00,VWS V14.01,2013-01-17 17:16:00,
2013-01-17 11:21:00,10.9,1.5,30.37,WSW,254,0.0,2.0,65,0.00,,OVC027,0.00,VWS V14.01,2013-01-17 17:21:00,
2013-01-17 11:26:00,11.1,1.6,30.37,WSW,254,5.0,7.0,65,0.00,,OVC027,0.00,VWS V14.01,2013-01-17 17:26:00,
2013-01-17 11:30:00,11.1,1.6,30.37,WSW,254,0.0,7.0,65,0.00,,,0.00,VWS V15.00,2013-01-17 17:30:00,
2013-01-17 11:31:00,11.1,1.6,30.37,WSW,254,7.0,7.0,65,0.00,,OVC027,0.00,VWS V14.01,2013-01-17 17:31:00,
2013-01-17 11:36:00,11.4,2.3,30.37,WSW,253,0.0,7.0,66,0.00,,OVC027,0.00,VWS V14.01,2013-01-17 17:36:00,
2013-01-17 11:41:00,11.4,1.9,30.37,WSW,253,0.0,7.0,65,0.00,,OVC044,0.00,VWS V14.01,2013-01-17 17:41:00,
2013-01-17 11:45:00,11.4,1.9,30.36,West,270,1.0,7.0,65,0.00,,,0.00,VWS V15.00,2013-01-17 17:45:00,
2013-01-17 11:46:00,11.2,1.7,30.36,West,270,0.0,1.0,65,0.00,,OVC044,0.00,VWS V14.01,2013-01-17 17:46:00,
2013-01-17 11:51:00,11.6,2.1,30.36,West,277,0.0,9.0,65,0.00,,OVC044,0.00,VWS V14.01,2013-01-17 17:51:00,
2013-01-17 11:56:00,11.9,2.4,30.36,West,276,3.0,9.0,65,0.00,,OVC044,0.00,VWS V14.01,2013-01-17 17:56:00,
2013-01-17 12:00:00,11.7,1.9,30.36,West,274,7.0,9.0,64,0.00,,,0.00,VWS V15.00,2013-01-17 18:00:00,
2013-01-17 12:01:00,11.6,1.8,30.36,West,273,6.0,7.0,64,0.00,,OVC042,0.00,VWS V14.01,2013-01-17 18:01:00,
2013-01-17 12:06:00,11.4,1.6,30.36,West,268,5.0,9.0,64,0.00,,OVC042,0.00,VWS V14.01,2013-01-17 18:06:00,
2013-01-17 12:12:00,11.7,1.9,30.36,WSW,253,8.0,9.0,64,0.00,,OVC042,0.00,VWS V14.01,2013-01-17 18:12:00,
2013-01-17 12:15:00,11.7,1.9,30.36,WSW,253,1.0,9.0,64,0.00,,,0.00,VWS V15.00,2013-01-17 18:15:00,
2013-01-17 12:17:00,11.7,1.9,30.36,WSW,253,1.0,1.0,64,0.00,,OVC042,0.00,VWS V14.01,2013-01-17 18:17:00,
2013-01-17 12:22:00,12.4,2.9,30.36,WSW,252,4.0,5.0,65,0.00,,OVC042,0.00,VWS V14.01,2013-01-17 18:22:00,
2013-01-17 12:27:00,12.6,2.8,30.36,WSW,252,0.0,6.0,64,0.00,,OVC042,0.00,VWS V14.01,2013-01-17 18:27:00,
2013-01-17 12:30:00,12.6,2.8,30.36,WSW,252,0.0,6.0,64,0.00,,,0.00,VWS V15.00,2013-01-17 18:30:00,
2013-01-17 12:32:00,12.6,2.4,30.36,WSW,252,0.0,0.0,63,0.00,,OVC040,0.00,VWS V14.01,2013-01-17 18:32:00,
2013-01-17 12:37:00,12.3,2.1,30.36,WSW,252,0.0,0.0,63,0.00,,OVC040,0.00,VWS V14.01,2013-01-17 18:37:00,
2013-01-17 12:42:00,12.3,1.8,30.36,West,278,0.0,11.0,62,0.00,,OVC038,0.00,VWS V14.01,2013-01-17 18:42:00,
2013-01-17 12:45:00,12.3,1.8,30.35,WSW,244,13.0,13.0,62,0.00,,,0.00,VWS V15.00,2013-01-17 18:45:00,
2013-01-17 12:47:00,12.3,3.1,30.35,WSW,244,10.0,13.0,66,0.00,,OVC038,0.00,VWS V14.01,2013-01-17 18:47:00,
2013-01-17 12:52:00,12.1,1.6,30.35,West,279,10.0,13.0,62,0.00,,OVC038,0.00,VWS V14.01,2013-01-17 18:52:00,
2013-01-17 12:57:00,12.6,2.1,30.35,West,264,1.0,13.0,62,0.00,,OVC038,0.00,VWS V14.01,2013-01-17 18:57:00,
2013-01-17 13:00:00,12.9,2.3,30.35,WSW,255,0.0,13.0,62,0.00,,,0.00,VWS V15.00,2013-01-17 19:00:00,
2013-01-17 13:02:00,13.1,2.5,30.35,WSW,255,5.0,5.0,62,0.00,,OVC030,0.00,VWS V14.01,2013-01-17 19:02:00,
2013-01-17 13:07:00,13.1,1.8,30.35,WNW,289,11.0,12.0,60,0.00,,OVC030,0.00,VWS V14.01,2013-01-17 19:07:00,
2013-01-17 13:12:00,13.1,1.8,30.35,WNW,292,6.0,13.0,60,0.00,,OVC030,0.00,VWS V14.01,2013-01-17 19:12:00,
2013-01-17 13:15:00,13.1,1.8,30.34,WNW,292,9.0,13.0,60,0.00,,,0.00,VWS V15.00,2013-01-17 19:15:00,
2013-01-17 13:17:00,13.1,2.5,30.34,WNW,289,6.0,9.0,62,0.00,,OVC030,0.00,VWS V14.01,2013-01-17 19:17:00,
2013-01-17 13:22:00,13.1,1.5,30.34,West,279,12.0,12.0,59,0.00,,OVC030,0.00,VWS V14.01,2013-01-17 19:22:00,
2013-01-17 13:27:00,13.1,1.5,30.34,WNW,303,6.0,12.0,59,0.00,,OVC030,0.00,VWS V14.01,2013-01-17 19:27:00,
2013-01-17 13:30:00,13.1,1.5,30.34,West,271,7.0,12.0,59,0.00,,,0.00,VWS V15.00,2013-01-17 19:30:00,
2013-01-17 13:32:00,13.1,1.5,30.34,West,267,1.0,12.0,59,0.00,,OVC030,0.00,VWS V14.01,2013-01-17 19:32:00,
2013-01-17 13:37:00,13.1,1.5,30.34,WSW,258,3.0,12.0,59,0.00,,OVC030,0.00,VWS V14.01,2013-01-17 19:37:00,
2013-01-17 13:42:00,13.5,2.2,30.34,WNW,291,5.0,13.0,60,0.00,,SCT022,0.00,VWS V14.01,2013-01-17 19:42:00,
2013-01-17 13:45:00,13.6,2.3,30.33,WNW,291,8.0,13.0,60,0.00,,,0.00,VWS V15.00,2013-01-17 19:45:00,
2013-01-17 13:47:00,13.6,2.3,30.33,WNW,296,9.0,9.0,60,0.00,,SCT022,0.00,VWS V14.01,2013-01-17 19:47:00,
2013-01-17 13:52:00,13.6,2.3,30.33,WNW,292,4.0,11.0,60,0.00,,SCT022,0.00,VWS V14.01,2013-01-17 19:52:00,
2013-01-17 13:57:00,13.8,2.1,30.33,WNW,291,11.0,13.0,59,0.00,,SCT022,0.00,VWS V14.01,2013-01-17 19:57:00,
2013-01-17 14:00:00,14.0,2.7,30.33,West,279,11.0,16.0,60,0.00,,,0.00,VWS V15.00,2013-01-17 20:00:00,
2013-01-17 14:02:00,14.0,2.0,30.33,West,265,0.0,11.0,58,0.00,,SCT023,0.00,VWS V14.01,2013-01-17 20:02:00,
2013-01-17 14:08:00,14.1,2.0,30.33,WSW,255,11.0,11.0,58,0.00,,SCT023,0.00,VWS V14.01,2013-01-17 20:08:00,
2013-01-17 14:13:00,14.3,2.2,30.33,West,271,12.0,13.0,58,0.00,,SCT023,0.00,VWS V14.01,2013-01-17 20:13:00,
2013-01-17 14:15:00,14.3,2.2,30.34,West,275,7.0,13.0,58,0.00,,,0.00,VWS V15.00,2013-01-17 20:15:00,
2013-01-17 14:18:00,14.3,2.2,30.34,West,265,5.0,10.0,58,0.00,,SCT023,0.00,VWS V14.01,2013-01-17 20:18:00,
2013-01-17 14:23:00,14.3,2.2,30.34,West,272,1.0,12.0,58,0.00,,SCT023,0.00,VWS V14.01,2013-01-17 20:23:00,
2013-01-17 14:28:00,14.4,2.3,30.34,West,276,9.0,12.0,58,0.00,,SCT023,0.00,VWS V14.01,2013-01-17 20:28:00,
2013-01-17 14:30:00,14.4,2.3,30.34,WNW,286,10.0,12.0,58,0.00,,,0.00,VWS V15.00,2013-01-17 20:30:00,
2013-01-17 14:33:00,14.4,2.3,30.34,WNW,297,7.0,13.0,58,0.00,,SCT027,0.00,VWS V14.01,2013-01-17 20:33:00,
2013-01-17 14:38:00,14.4,2.3,30.34,West,268,8.0,13.0,58,0.00,,SCT027,0.00,VWS V14.01,2013-01-17 20:38:00,
2013-01-17 14:43:00,14.6,2.9,30.34,WNW,288,4.0,13.0,59,0.00,,SCT027,0.00,VWS V14.01,2013-01-17 20:43:00,
2013-01-17 14:45:00,14.8,2.3,30.34,West,275,6.0,13.0,57,0.00,,,0.00,VWS V15.00,2013-01-17 20:45:00,
2013-01-17 14:48:00,14.9,2.8,30.34,WNW,293,7.0,9.0,58,0.00,,SCT027,0.00,VWS V14.01,2013-01-17 20:48:00,
2013-01-17 14:53:00,15.1,2.2,30.34,West,280,0.0,10.0,56,0.00,,SCT027,0.00,VWS V14.01,2013-01-17 20:53:00,
2013-01-17 14:58:00,15.1,2.6,30.34,West,264,2.0,12.0,57,0.00,,SCT027,0.00,VWS V14.01,2013-01-17 20:58:00,
2013-01-17 15:00:00,15.1,2.6,30.34,WNW,291,8.0,12.0,57,0.00,,,0.00,VWS V15.00,2013-01-17 21:00:00,
2013-01-17 15:03:00,15.1,2.6,30.34,WNW,290,6.0,8.0,57,0.00,,BKN029,0.00,VWS V14.01,2013-01-17 21:03:00,
2013-01-17 15:08:00,14.8,2.3,30.34,WNW,291,3.0,11.0,57,0.00,,BKN029,0.00,VWS V14.01,2013-01-17 21:08:00,
2013-01-17 15:13:00,14.8,2.0,30.34,WNW,292,5.0,11.0,56,0.00,,BKN029,0.00,VWS V14.01,2013-01-17 21:13:00,
2013-01-17 15:15:00,14.8,2.0,30.35,WNW,283,10.0,11.0,56,0.00,,,0.00,VWS V15.00,2013-01-17 21:15:00,
2013-01-17 15:18:00,14.8,2.0,30.35,WNW,288,3.0,10.0,56,0.00,,BKN029,0.00,VWS V14.01,2013-01-17 21:18:00,
2013-01-17 15:23:00,14.6,2.2,30.35,WNW,293,0.0,10.0,57,0.00,,BKN029,0.00,VWS V14.01,2013-01-17 21:23:00,
2013-01-17 15:28:00,14.6,2.2,30.35,WNW,293,7.0,11.0,57,0.00,,BKN029,0.00,VWS V14.01,2013-01-17 21:28:00,
2013-01-17 15:30:00,14.6,2.5,30.35,WNW,297,2.0,11.0,58,0.00,,,0.00,VWS V15.00,2013-01-17 21:30:00,
2013-01-17 15:33:00,14.6,2.5,30.35,WNW,297,0.0,3.0,58,0.00,,BKN029,0.00,VWS V14.01,2013-01-17 21:33:00,
2013-01-17 15:38:00,14.6,2.2,30.35,WNW,296,1.0,3.0,57,0.00,,BKN029,0.00,VWS V14.01,2013-01-17 21:38:00,
2013-01-17 15:43:00,14.6,2.5,30.35,WNW,296,1.0,5.0,58,0.00,,SCT029,0.00,VWS V14.01,2013-01-17 21:43:00,
2013-01-17 15:45:00,14.6,2.5,30.35,WNW,298,2.0,6.0,58,0.00,,,0.00,VWS V15.00,2013-01-17 21:45:00,
2013-01-17 15:48:00,14.4,2.0,30.35,WNW,294,4.0,9.0,57,0.00,,SCT029,0.00,VWS V14.01,2013-01-17 21:48:00,
2013-01-17 15:53:00,14.3,1.9,30.35,WNW,294,2.0,9.0,57,0.00,,SCT029,0.00,VWS V14.01,2013-01-17 21:53:00,
2013-01-17 15:58:00,14.1,2.0,30.35,WNW,293,7.0,9.0,58,0.00,,SCT029,0.00,VWS V14.01,2013-01-17 21:58:00,
2013-01-17 16:00:00,14.1,2.0,30.35,WNW,291,4.0,10.0,58,0.00,,,0.00,VWS V15.00,2013-01-17 22:00:00,
2013-01-17 16:03:00,14.0,2.0,30.35,WNW,291,1.0,6.0,58,0.00,,CLR,0.00,VWS V14.01,2013-01-17 22:03:00,
2013-01-17 16:08:00,13.8,2.1,30.35,West,274,0.0,13.0,59,0.00,,CLR,0.00,VWS V14.01,2013-01-17 22:08:00,
2013-01-17 16:13:00,13.6,1.6,30.35,WNW,292,3.0,13.0,58,0.00,,CLR,0.00,VWS V14.01,2013-01-17 22:13:00,
2013-01-17 16:15:00,13.6,1.6,30.35,WNW,292,0.0,13.0,58,0.00,,,0.00,VWS V15.00,2013-01-17 22:15:00,
2013-01-17 16:18:00,13.6,2.0,30.35,WNW,292,0.0,0.0,59,0.00,,CLR,0.00,VWS V14.01,2013-01-17 22:18:00,
2013-01-17 16:23:00,13.5,1.9,30.35,WNW,291,2.0,9.0,59,0.00,,CLR,0.00,VWS V14.01,2013-01-17 22:23:00,
2013-01-17 16:28:00,13.1,1.8,30.35,WNW,287,1.0,9.0,60,0.00,,CLR,0.00,VWS V14.01,2013-01-17 22:28:00,
2013-01-17 16:30:00,13.1,1.8,30.36,West,277,6.0,9.0,60,0.00,,,0.00,VWS V15.00,2013-01-17 22:30:00,
2013-01-17 16:33:00,12.9,1.6,30.36,West,276,6.0,7.0,60,0.00,,CLR,0.00,VWS V14.01,2013-01-17 22:33:00,
2013-01-17 16:39:00,12.8,1.5,30.36,West,273,0.0,10.0,60,0.00,,CLR,0.00,VWS V14.01,2013-01-17 22:39:00,
2013-01-17 16:44:00,12.6,1.7,30.36,West,273,0.0,10.0,61,0.00,,SCT029,0.00,VWS V14.01,2013-01-17 22:44:00,
2013-01-17 16:45:00,12.4,1.5,30.36,West,273,6.0,10.0,61,0.00,,,0.00,VWS V15.00,2013-01-17 22:45:00,
2013-01-17 16:49:00,12.3,1.8,30.36,West,272,5.0,6.0,62,0.00,,SCT029,0.00,VWS V14.01,2013-01-17 22:49:00,
2013-01-17 16:54:00,11.9,1.4,30.36,West,272,0.0,6.0,62,0.00,,SCT029,0.00,VWS V14.01,2013-01-17 22:54:00,
2013-01-17 16:59:00,11.6,1.1,30.36,West,272,0.0,6.0,62,0.00,,SCT029,0.00,VWS V14.01,2013-01-17 22:59:00,
2013-01-17 17:00:00,11.4,1.3,30.36,West,272,0.0,6.0,63,0.00,,,0.00,VWS V15.00,2013-01-17 23:00:00,
2013-01-17 17:04:00,11.2,1.1,30.36,West,272,0.0,0.0,63,0.00,,CLR,0.00,VWS V14.01,2013-01-17 23:04:00,
2013-01-17 17:09:00,11.1,1.3,30.36,West,272,5.0,6.0,64,0.00,,CLR,0.00,VWS V14.01,2013-01-17 23:09:00,
2013-01-17 17:14:00,10.9,1.1,30.36,West,272,1.0,6.0,64,0.00,,CLR,0.00,VWS V14.01,2013-01-17 23:14:00,
2013-01-17 17:15:00,10.9,1.1,30.36,West,272,5.0,6.0,64,0.00,,,0.00,VWS V15.00,2013-01-17 23:15:00,
2013-01-17 17:19:00,10.7,1.3,30.36,West,272,0.0,5.0,65,0.00,,CLR,0.00,VWS V14.01,2013-01-17 23:19:00,
2013-01-17 17:24:00,10.5,1.1,30.36,West,272,0.0,5.0,65,0.00,,CLR,0.00,VWS V14.01,2013-01-17 23:24:00,
2013-01-17 17:29:00,10.4,1.0,30.36,West,272,0.0,5.0,65,0.00,,CLR,0.00,VWS V14.01,2013-01-17 23:29:00,
2013-01-17 17:30:00,10.4,1.0,30.36,West,272,0.0,5.0,65,0.00,,,0.00,VWS V15.00,2013-01-17 23:30:00,
2013-01-17 17:34:00,10.2,1.1,30.36,West,272,0.0,0.0,66,0.00,,CLR,0.00,VWS V14.01,2013-01-17 23:34:00,
2013-01-17 17:39:00,9.9,1.1,30.36,West,272,0.0,0.0,67,0.00,,CLR,0.00,VWS V14.01,2013-01-17 23:39:00,
2013-01-17 17:44:00,9.5,0.8,30.36,West,272,0.0,0.0,67,0.00,,CLR,0.00,VWS V14.01,2013-01-17 23:44:00,
2013-01-17 17:45:00,9.5,1.1,30.36,West,272,0.0,0.0,68,0.00,,,0.00,VWS V15.00,2013-01-17 23:45:00,
2013-01-17 17:49:00,9.3,0.9,30.36,West,272,0.0,0.0,68,0.00,,CLR,0.00,VWS V14.01,2013-01-17 23:49:00,
2013-01-17 17:54:00,9.3,0.9,30.36,West,272,0.0,0.0,68,0.00,,CLR,0.00,VWS V14.01,2013-01-17 23:54:00,
2013-01-17 17:59:00,9.3,0.9,30.36,West,272,0.0,0.0,68,0.00,,CLR,0.00,VWS V14.01,2013-01-17 23:59:00,
2013-01-17 18:00:00,9.3,0.9,30.35,West,272,0.0,0.0,68,0.00,,,0.00,VWS V15.00,2013-01-18 00:00:00,
2013-01-17 18:04:00,9.0,0.6,30.35,West,272,0.0,0.0,68,0.00,,CLR,0.00,VWS V14.01,2013-01-18 00:04:00,
2013-01-17 18:09:00,8.6,0.5,30.35,West,272,0.0,0.0,69,0.00,,CLR,0.00,VWS V14.01,2013-01-18 00:09:00,
2013-01-17 18:14:00,8.6,0.5,30.35,West,272,0.0,0.0,69,0.00,,CLR,0.00,VWS V14.01,2013-01-18 00:14:00,
2013-01-17 18:15:00,8.6,0.5,30.36,West,272,0.0,0.0,69,0.00,,,0.00,VWS V15.00,2013-01-18 00:15:00,
2013-01-17 18:20:00,8.6,0.5,30.36,West,272,0.0,0.0,69,0.00,,CLR,0.00,VWS V14.01,2013-01-18 00:20:00,
2013-01-17 18:25:00,8.4,0.3,30.36,West,272,0.0,0.0,69,0.00,,CLR,0.00,VWS V14.01,2013-01-18 00:25:00,
2013-01-17 18:30:00,8.3,0.2,30.36,West,272,0.0,0.0,69,0.00,,CLR,0.00,VWS V14.01,2013-01-18 00:30:00,
2013-01-17 18:35:00,8.1,0.4,30.36,West,272,0.0,0.0,70,0.00,,CLR,0.00,VWS V14.01,2013-01-18 00:35:00,
2013-01-17 18:40:00,7.9,0.2,30.36,West,272,0.0,0.0,70,0.00,,CLR,0.00,VWS V14.01,2013-01-18 00:40:00,
2013-01-17 18:45:00,7.7,0.3,30.36,West,272,0.0,0.0,71,0.00,,CLR,0.00,VWS V14.01,2013-01-18 00:45:00,
2013-01-17 18:50:00,7.6,0.2,30.37,West,272,0.0,0.0,71,0.00,,CLR,0.00,VWS V14.01,2013-01-18 00:50:00,
2013-01-17 18:55:00,7.4,0.0,30.37,West,272,0.0,0.0,71,0.00,,CLR,0.00,VWS V14.01,2013-01-18 00:55:00,
2013-01-17 19:00:00,7.4,0.3,30.37,West,272,0.0,0.0,72,0.00,,CLR,0.00,VWS V14.01,2013-01-18 01:00:00,
2013-01-17 19:05:00,7.4,0.3,30.38,West,272,0.0,0.0,72,0.00,,CLR,0.00,VWS V14.01,2013-01-18 01:05:00,
2013-01-17 19:10:00,7.4,0.3,30.38,West,272,0.0,0.0,72,0.00,,CLR,0.00,VWS V14.01,2013-01-18 01:10:00,
2013-01-17 19:15:00,7.4,0.3,30.38,West,272,0.0,0.0,72,0.00,,CLR,0.00,VWS V14.01,2013-01-18 01:15:00,
2013-01-17 19:20:00,7.2,0.4,30.37,West,272,0.0,0.0,73,0.00,,CLR,0.00,VWS V14.01,2013-01-18 01:20:00,
2013-01-17 19:25:00,7.2,0.1,30.37,West,272,0.0,0.0,72,0.00,,CLR,0.00,VWS V14.01,2013-01-18 01:25:00,
2013-01-17 19:30:00,7.0,0.2,30.37,West,272,0.0,0.0,73,0.00,,CLR,0.00,VWS V14.01,2013-01-18 01:30:00,
2013-01-17 19:35:00,6.9,0.1,30.37,West,272,0.0,0.0,73,0.00,,CLR,0.00,VWS V14.01,2013-01-18 01:35:00,
2013-01-17 19:40:00,6.5,-0.6,30.37,West,272,0.0,0.0,72,0.00,,CLR,0.00,VWS V14.01,2013-01-18 01:40:00,
2013-01-17 19:45:00,6.1,-0.7,30.37,West,272,0.0,0.0,73,0.00,,CLR,0.00,VWS V14.01,2013-01-18 01:45:00,
2013-01-17 19:50:00,6.1,-0.4,30.37,West,272,0.0,0.0,74,0.00,,CLR,0.00,VWS V14.01,2013-01-18 01:50:00,
2013-01-17 19:55:00,5.6,-1.2,30.37,West,272,0.0,0.0,73,0.00,,CLR,0.00,VWS V14.01,2013-01-18 01:55:00,
2013-01-17 20:00:00,5.2,-1.5,30.37,West,272,0.0,0.0,73,0.00,,CLR,0.00,VWS V14.01,2013-01-18 02:00:00,
2013-01-17 20:05:00,4.8,-1.6,30.37,West,272,0.0,0.0,74,0.00,,CLR,0.00,VWS V14.01,2013-01-18 02:05:00,
2013-01-17 20:10:00,4.8,-1.4,30.37,West,272,0.0,0.0,75,0.00,,CLR,0.00,VWS V14.01,2013-01-18 02:10:00,
2013-01-17 20:15:00,4.7,-1.5,30.36,West,272,0.0,0.0,75,0.00,,CLR,0.00,VWS V14.01,2013-01-18 02:15:00,
2013-01-17 20:21:00,4.7,-1.5,30.36,West,272,0.0,0.0,75,0.00,,CLR,0.00,VWS V14.01,2013-01-18 02:21:00,
2013-01-17 20:26:00,4.5,-1.7,30.36,West,272,0.0,0.0,75,0.00,,CLR,0.00,VWS V14.01,2013-01-18 02:26:00,
2013-01-17 20:30:00,4.3,-1.6,30.36,West,272,0.0,0.0,76,0.00,,,0.00,VWS V15.00,2013-01-18 02:30:00,
2013-01-17 20:31:00,4.3,-1.6,30.36,West,272,0.0,0.0,76,0.00,,CLR,0.00,VWS V14.01,2013-01-18 02:31:00,
2013-01-17 20:36:00,3.7,-2.4,30.36,West,272,0.0,0.0,75,0.00,,CLR,0.00,VWS V14.01,2013-01-18 02:36:00,
2013-01-17 20:41:00,3.0,-3.1,30.36,West,272,0.0,0.0,75,0.00,,SCT110,0.00,VWS V14.01,2013-01-18 02:41:00,
2013-01-17 20:45:00,2.8,-3.0,30.34,West,272,0.0,0.0,76,0.00,,,0.00,VWS V15.00,2013-01-18 02:45:00,
2013-01-17 20:46:00,2.8,-3.0,30.34,West,272,0.0,0.0,76,0.00,,SCT110,0.00,VWS V14.01,2013-01-18 02:46:00,
2013-01-17 20:51:00,3.0,-2.6,30.34,West,272,0.0,0.0,77,0.00,,SCT110,0.00,VWS V14.01,2013-01-18 02:51:00,
2013-01-17 20:56:00,3.2,-2.4,30.34,West,272,0.0,0.0,77,0.00,,SCT110,0.00,VWS V14.01,2013-01-18 02:56:00,
2013-01-17 21:00:00,3.4,-2.2,30.34,West,272,0.0,0.0,77,0.00,,,0.00,VWS V15.00,2013-01-18 03:00:00,
2013-01-17 21:01:00,3.4,-2.2,30.34,West,272,0.0,0.0,77,0.00,,SCT120,0.00,VWS V14.01,2013-01-18 03:01:00,
2013-01-17 21:06:00,3.4,-2.2,30.34,West,272,0.0,0.0,77,0.00,,SCT120,0.00,VWS V14.01,2013-01-18 03:06:00,
2013-01-17 21:11:00,3.5,-1.8,30.34,West,272,0.0,0.0,78,0.00,,SCT120,0.00,VWS V14.01,2013-01-18 03:11:00,
2013-01-17 21:15:00,3.7,-1.6,30.34,West,272,0.0,0.0,78,0.00,,,0.00,VWS V15.00,2013-01-18 03:15:00,
2013-01-17 21:16:00,3.7,-1.6,30.34,West,272,0.0,0.0,78,0.00,,SCT120,0.00,VWS V14.01,2013-01-18 03:16:00,
2013-01-17 21:21:00,3.9,-1.4,30.34,West,272,0.0,0.0,78,0.00,,SCT120,0.00,VWS V14.01,2013-01-18 03:21:00,
2013-01-17 21:26:00,4.3,-1.0,30.34,West,272,4.0,6.0,78,0.00,,SCT120,0.00,VWS V14.01,2013-01-18 03:26:00,
2013-01-17 21:30:00,4.3,-1.0,30.34,West,272,5.0,6.0,78,0.00,,,0.00,VWS V15.00,2013-01-18 03:30:00,
2013-01-17 21:31:00,4.3,-1.0,30.34,West,272,5.0,5.0,78,0.00,,SCT120,0.00,VWS V14.01,2013-01-18 03:31:00,
2013-01-17 21:36:00,4.3,-1.0,30.34,West,270,6.0,6.0,78,0.00,,SCT120,0.00,VWS V14.01,2013-01-18 03:36:00,
2013-01-17 21:41:00,4.3,-1.0,30.34,West,270,4.0,6.0,78,0.00,,SCT110,0.00,VWS V14.01,2013-01-18 03:41:00,
2013-01-17 21:45:00,4.5,-0.8,30.34,West,269,6.0,6.0,78,0.00,,,0.00,VWS V15.00,2013-01-18 03:45:00,
2013-01-17 21:46:00,4.5,-0.8,30.34,West,269,7.0,7.0,78,0.00,,SCT110,0.00,VWS V14.01,2013-01-18 03:46:00,
2013-01-17 21:51:00,4.7,-0.6,30.34,West,267,6.0,7.0,78,0.00,,SCT110,0.00,VWS V14.01,2013-01-18 03:51:00,
2013-01-17 21:56:00,4.7,-0.6,30.34,West,267,4.0,7.0,78,0.00,,SCT110,0.00,VWS V14.01,2013-01-18 03:56:00,
2013-01-17 22:00:00,4.8,-0.8,30.34,West,267,4.0,7.0,77,0.00,,,0.00,VWS V15.00,2013-01-18 04:00:00,
2013-01-17 22:02:00,4.8,-0.8,30.34,West,267,4.0,4.0,77,0.00,,SCT100,0.00,VWS V14.01,2013-01-18 04:02:00,
2013-01-17 22:07:00,4.7,-0.9,30.34,West,267,2.0,4.0,77,0.00,,SCT100,0.00,VWS V14.01,2013-01-18 04:07:00,
2013-01-17 22:12:00,4.7,-0.9,30.34,West,267,4.0,4.0,77,0.00,,SCT100,0.00,VWS V14.01,2013-01-18 04:12:00,
2013-01-17 22:15:00,4.8,-0.8,30.32,West,267,4.0,5.0,77,0.00,,,0.00,VWS V15.00,2013-01-18 04:15:00,
2013-01-17 22:17:00,4.8,-0.8,30.32,West,267,4.0,4.0,77,0.00,,SCT100,0.00,VWS V14.01,2013-01-18 04:17:00,
2013-01-17 22:22:00,5.0,-0.6,30.32,West,267,5.0,5.0,77,0.00,,SCT100,0.00,VWS V14.01,2013-01-18 04:22:00,
2013-01-17 22:27:00,5.2,-0.2,30.32,West,267,6.0,6.0,78,0.00,,SCT100,0.00,VWS V14.01,2013-01-18 04:27:00,
2013-01-17 22:30:00,6.0,0.9,30.31,West,266,5.0,6.0,79,0.00,,,0.00,VWS V15.00,2013-01-18 04:30:00,
2013-01-17 22:32:00,6.0,0.9,30.31,West,266,5.0,5.0,79,0.00,,SCT100,0.00,VWS V14.01,2013-01-18 04:32:00,
2013-01-17 22:37:00,6.5,1.4,30.31,West,266,4.0,6.0,79,0.00,,SCT100,0.00,VWS V14.01,2013-01-18 04:37:00,
2013-01-17 22:42:00,6.7,1.6,30.31,West,266,4.0,6.0,79,0.00,,OVC120,0.00,VWS V14.01,2013-01-18 04:42:00,
2013-01-17 22:45:00,6.9,1.8,30.30,West,266,5.0,6.0,79,0.00,,,0.00,VWS V15.00,2013-01-18 04:45:00,
2013-01-17 22:47:00,6.9,1.8,30.30,West,266,5.0,6.0,79,0.00,,OVC120,0.00,VWS V14.01,2013-01-18 04:47:00,
2013-01-17 22:52:00,7.0,1.9,30.30,West,266,5.0,6.0,79,0.00,,OVC100,0.00,VWS V14.01,2013-01-18 04:52:00,
2013-01-17 22:57:00,7.0,1.6,30.30,West,266,2.0,6.0,78,0.00,,OVC100,0.00,VWS V14.01,2013-01-18 04:57:00,
2013-01-17 23:00:00,7.0,1.6,30.30,West,266,2.0,6.0,78,0.00,,OVC100,0.00,VWS V14.01,2013-01-18 05:00:00,
2013-01-17 23:06:00,6.9,1.2,30.30,West,266,2.0,4.0,77,0.00,,OVC100,0.00,VWS V14.01,2013-01-18 05:06:00,
2013-01-17 23:07:00,6.9,1.2,30.30,West,266,3.0,4.0,77,0.00,,OVC100,0.00,VWS V14.01,2013-01-18 05:07:00,
2013-01-17 23:10:00,6.9,1.2,30.30,West,266,3.0,4.0,77,0.00,,OVC100,0.00,VWS V14.01,2013-01-18 05:10:00,
2013-01-17 23:14:00,7.0,1.3,30.30,West,266,3.0,4.0,77,0.00,,OVC100,0.00,VWS V14.01,2013-01-18 05:14:00,
2013-01-17 23:15:00,7.0,1.3,30.30,West,266,3.0,4.0,77,0.00,,,0.00,VWS V15.00,2013-01-18 05:15:00,
2013-01-17 23:19:00,7.0,1.6,30.30,West,266,2.0,3.0,78,0.00,,OVC100,0.00,VWS V14.01,2013-01-18 05:19:00,
2013-01-17 23:24:00,7.2,1.5,30.30,West,266,3.0,4.0,77,0.00,,OVC100,0.00,VWS V14.01,2013-01-18 05:24:00,
2013-01-17 23:29:00,7.2,1.5,30.30,West,266,3.0,4.0,77,0.00,,OVC100,0.00,VWS V14.01,2013-01-18 05:29:00,
2013-01-17 23:30:00,7.4,1.7,30.30,West,266,5.0,5.0,77,0.00,,,0.00,VWS V15.00,2013-01-18 05:30:00,
2013-01-17 23:34:00,7.4,1.7,30.30,West,266,4.0,5.0,77,0.00,,OVC100,0.00,VWS V14.01,2013-01-18 05:34:00,
2013-01-17 23:39:00,8.3,3.1,30.30,West,266,5.0,6.0,79,0.00,,OVC100,0.00,VWS V14.01,2013-01-18 05:39:00,
2013-01-17 23:44:00,9.3,4.1,30.30,West,265,5.0,6.0,79,0.00,,BKN100,0.00,VWS V14.01,2013-01-18 05:44:00,
2013-01-17 23:45:00,9.7,4.2,30.29,West,264,5.0,7.0,78,0.00,,,0.00,VWS V15.00,2013-01-18 05:45:00,
2013-01-17 23:49:00,10.2,4.4,30.29,West,264,4.0,6.0,77,0.00,,BKN100,0.00,VWS V14.01,2013-01-18 05:49:00,
2013-01-17 23:54:00,10.5,4.4,30.29,West,261,6.0,7.0,76,0.00,,BKN110,0.00,VWS V14.01,2013-01-18 05:54:00,